Jard de Ceiba, Puerto Rico
Current Conditions -  °F | °C
As of 10:53 AM on Sunday 23 Nov 2014 (Local Time) from TJNR Reporting Station
Broken Clouds Broken Clouds  
Wind Chill: 84°   Ceiling: 7000
Heat Index: 90°   Visibility: 10mi
Dew Point: 73°   Wind: 14mph
Humidity: 69%   Direction: 90°E
Pressure: 30.08"   Gusts: 21mph
Location:  18.2667°N, 65.6476°W
Report Text: TJNR 231453Z AUTO 09012G18KT 10SM FEW028 BKN070 29/23 A3008 RMK AO2 SLP187 T02890228 50009 $
Loading
Personal Weather Stations






























Interactive Weather Map New forecast layout! Learn more

10-Day Weather Forecast

Advertisements
Track Severe Weather on mobile